createdAt,value
2022-10-09T00:00:24.289Z,21.70
2022-10-09T00:05:24.215Z,12.60
2022-10-09T00:10:24.205Z,15.90
2022-10-09T00:15:24.114Z,12.60
2022-10-09T00:20:24.059Z,14.50
2022-10-09T00:25:24.168Z,15.10
2022-10-09T00:30:23.967Z,25.50
2022-10-09T00:35:24.055Z,18.00
2022-10-09T00:40:23.885Z,13.50
2022-10-09T00:45:24.958Z,19.20
2022-10-09T00:50:23.885Z,21.60
2022-10-09T00:55:23.696Z,16.40
2022-10-09T01:00:23.630Z,19.30
2022-10-09T01:05:23.563Z,18.90
2022-10-09T01:10:23.550Z,14.20
2022-10-09T01:15:23.654Z,19.70
2022-10-09T01:20:23.474Z,20.40
2022-10-09T01:25:23.351Z,18.20
2022-10-09T01:30:23.393Z,18.10
2022-10-09T01:35:23.368Z,16.40
2022-10-09T01:40:23.275Z,14.80
2022-10-09T01:45:23.232Z,19.30
2022-10-09T01:50:23.296Z,20.20
2022-10-09T01:55:23.219Z,22.90
2022-10-09T02:00:23.287Z,21.40
2022-10-09T02:05:23.006Z,15.50
2022-10-09T02:10:23.889Z,16.70
2022-10-09T02:15:22.821Z,21.00
2022-10-09T02:20:22.819Z,20.50
2022-10-09T02:25:22.708Z,19.40
2022-10-09T02:30:22.659Z,17.90
2022-10-09T02:35:22.580Z,18.20
2022-10-09T02:40:22.553Z,26.70
2022-10-09T02:45:22.526Z,21.70
2022-10-09T02:50:22.626Z,22.70
2022-10-09T02:55:23.531Z,19.00
2022-10-09T03:00:22.486Z,21.90
2022-10-09T03:05:22.349Z,21.60
2022-10-09T03:10:23.417Z,19.70
2022-10-09T03:15:22.275Z,19.20
2022-10-09T03:20:22.264Z,22.20
2022-10-09T03:25:22.111Z,20.60
2022-10-09T03:30:22.159Z,25.10
2022-10-09T03:35:21.955Z,22.50
2022-10-09T03:40:21.872Z,16.20
2022-10-09T03:45:21.833Z,18.50
2022-10-09T03:50:21.825Z,17.80
2022-10-09T03:55:21.760Z,15.90
2022-10-09T04:00:21.702Z,26.40
2022-10-09T04:05:21.767Z,17.60
2022-10-09T04:10:22.640Z,18.20
2022-10-09T04:15:21.648Z,21.30
2022-10-09T04:20:21.502Z,17.90
2022-10-09T04:25:21.549Z,26.20
2022-10-09T04:30:21.513Z,24.90
2022-10-09T04:35:21.315Z,29.60
2022-10-09T04:40:21.273Z,31.10
2022-10-09T04:45:21.230Z,18.40
2022-10-09T04:50:21.160Z,27.20
2022-10-09T04:55:21.113Z,23.00
2022-10-09T05:00:21.185Z,24.40
2022-10-09T05:05:20.976Z,23.30
2022-10-09T05:10:21.083Z,20.30
2022-10-09T05:15:20.958Z,20.60
2022-10-09T05:20:20.889Z,18.20
2022-10-09T05:25:20.979Z,28.20
2022-10-09T05:30:21.782Z,21.80
2022-10-09T05:35:21.008Z,19.80
2022-10-09T05:40:21.512Z,28.80
2022-10-09T05:45:20.664Z,26.00
2022-10-09T05:50:20.613Z,21.40
2022-10-09T05:55:20.550Z,24.10
2022-10-09T06:00:20.519Z,18.50
2022-10-09T06:05:20.518Z,19.70
2022-10-09T06:10:20.263Z,21.60
2022-10-09T06:15:20.487Z,22.80
2022-10-09T06:20:20.503Z,22.30
2022-10-09T06:25:21.235Z,26.90
2022-10-09T06:30:20.064Z,23.00
2022-10-09T06:57:28.184Z,24.10
2022-10-09T07:02:27.862Z,25.50
2022-10-09T07:07:27.783Z,30.70
2022-10-09T07:12:27.691Z,22.80
2022-10-09T07:17:27.687Z,26.30
2022-10-09T07:22:27.712Z,24.50
2022-10-09T07:27:27.493Z,28.50
2022-10-09T07:32:27.444Z,20.70
2022-10-09T07:37:27.456Z,17.50
2022-10-09T07:42:27.365Z,14.80
2022-10-09T07:47:27.274Z,17.10
2022-10-09T07:52:27.365Z,18.40
2022-10-09T07:57:27.278Z,11.90
2022-10-09T08:02:27.165Z,15.00
2022-10-09T08:07:30.311Z,15.30
2022-10-09T08:12:28.111Z,9.00
2022-10-09T08:17:27.120Z,9.10
2022-10-09T08:22:28.042Z,13.80
2022-10-09T08:27:26.915Z,12.60
2022-10-09T08:32:27.002Z,11.80
2022-10-09T08:37:26.909Z,12.90
2022-10-09T08:42:28.233Z,11.60
2022-10-09T08:47:27.770Z,12.20
2022-10-09T08:52:26.732Z,6.60
2022-10-09T08:57:26.490Z,12.90
2022-10-09T09:02:26.497Z,8.30
2022-10-09T09:07:26.418Z,12.30
2022-10-09T09:12:26.370Z,12.50
2022-10-09T09:17:26.294Z,8.50
2022-10-09T09:22:26.205Z,10.50
2022-10-09T09:27:26.157Z,15.70
2022-10-09T09:32:26.113Z,9.30
2022-10-09T09:37:26.092Z,12.80
2022-10-09T09:42:26.121Z,10.50
2022-10-09T09:47:25.932Z,11.20
2022-10-09T09:52:25.870Z,9.50
2022-10-09T09:57:34.667Z,9.30
2022-10-09T10:02:25.802Z,10.30
2022-10-09T10:07:25.694Z,8.30
2022-10-09T10:12:25.649Z,7.40
2022-10-09T10:17:25.604Z,9.20
2022-10-09T10:22:25.522Z,8.80
2022-10-09T10:27:25.463Z,7.70
2022-10-09T10:32:25.429Z,12.50
2022-10-09T10:37:25.447Z,7.60
2022-10-09T10:42:27.637Z,8.20
2022-10-09T10:47:25.318Z,7.80
2022-10-09T10:52:25.198Z,9.10
2022-10-09T10:57:25.146Z,9.40
2022-10-09T11:02:25.088Z,9.40
2022-10-09T11:07:25.038Z,7.90
2022-10-09T11:12:46.912Z,5.10
2022-10-09T11:17:25.954Z,7.40
2022-10-09T11:22:24.892Z,6.80
2022-10-09T11:27:24.848Z,5.60
2022-10-09T11:32:24.898Z,9.20
2022-10-09T11:37:24.794Z,8.20
2022-10-09T11:42:24.834Z,7.10
2022-10-09T11:47:24.690Z,6.20
2022-10-09T11:52:24.628Z,6.30
2022-10-09T11:57:24.560Z,4.80
2022-10-09T12:02:24.620Z,7.40
2022-10-09T12:07:24.471Z,10.60
2022-10-09T12:12:24.410Z,6.70
2022-10-09T12:17:24.369Z,6.50
2022-10-09T12:22:24.295Z,8.50
2022-10-09T12:27:24.223Z,7.10
2022-10-09T12:32:25.204Z,5.00
2022-10-09T12:37:24.121Z,7.80
2022-10-09T12:42:24.155Z,9.90
2022-10-09T12:47:23.996Z,9.90
2022-10-09T12:52:23.967Z,11.30
2022-10-09T12:57:26.867Z,6.70
2022-10-09T13:02:24.947Z,5.50
2022-10-09T13:07:23.807Z,7.50
2022-10-09T13:12:23.867Z,8.30
2022-10-09T13:17:23.719Z,9.90
2022-10-09T13:22:23.621Z,4.80
2022-10-09T13:27:23.580Z,5.80
2022-10-09T13:32:23.601Z,8.80
2022-10-09T13:37:23.532Z,7.80
2022-10-09T13:42:23.552Z,5.40
2022-10-09T13:47:24.609Z,5.80
2022-10-09T13:52:23.290Z,6.90
2022-10-09T13:57:23.312Z,9.30
2022-10-09T14:02:23.256Z,5.60
2022-10-09T14:07:23.179Z,4.60
2022-10-09T14:12:23.170Z,7.70
2022-10-09T14:17:23.020Z,7.70
2022-10-09T14:22:22.916Z,7.90
2022-10-09T14:27:23.830Z,6.10
2022-10-09T14:32:22.856Z,6.30
2022-10-09T14:37:41.232Z,5.80
2022-10-09T14:42:23.755Z,9.10
2022-10-09T14:47:22.835Z,9.90
2022-10-09T14:52:22.643Z,7.50
2022-10-09T14:57:22.623Z,4.70
2022-10-09T15:02:22.566Z,4.10
2022-10-09T15:07:22.547Z,6.50
2022-10-09T15:12:22.485Z,8.40
2022-10-09T15:17:22.417Z,8.00
2022-10-09T15:22:22.381Z,8.00
2022-10-09T15:27:22.262Z,7.30
2022-10-09T15:32:22.191Z,6.10
2022-10-09T15:37:22.260Z,7.40
2022-10-09T15:42:22.141Z,7.80
2022-10-09T15:47:39.253Z,5.80
2022-10-09T15:52:22.927Z,4.60
2022-10-09T16:00:04.423Z,5.60
2022-10-09T16:05:04.433Z,6.50
2022-10-09T16:10:04.378Z,8.10
2022-10-09T16:15:04.317Z,6.40
2022-10-09T16:20:04.277Z,4.50
2022-10-09T16:25:04.919Z,6.10
2022-10-09T16:30:04.256Z,12.40
2022-10-09T16:35:05.106Z,8.30
2022-10-09T16:40:03.997Z,9.30
2022-10-09T16:45:04.387Z,11.00
2022-10-09T16:50:04.008Z,10.30
2022-10-09T16:55:03.838Z,8.00
2022-10-09T17:00:03.891Z,21.50
2022-10-09T17:05:03.865Z,22.80
2022-10-09T17:10:03.649Z,14.10
2022-10-09T17:15:03.614Z,18.70
2022-10-09T17:20:03.715Z,17.00
2022-10-09T17:25:03.581Z,35.50
2022-10-09T17:30:03.487Z,16.10
2022-10-09T17:35:03.429Z,12.50
2022-10-09T17:40:03.427Z,11.10
2022-10-09T17:45:03.312Z,15.30
2022-10-09T17:50:03.321Z,13.70
2022-10-09T17:55:03.233Z,8.80
2022-10-09T18:00:03.123Z,44.20
2022-10-09T18:05:03.202Z,11.50
2022-10-09T18:10:03.002Z,17.80
2022-10-09T18:15:03.993Z,34.30
2022-10-09T18:20:03.017Z,23.80
2022-10-09T18:25:02.853Z,17.60
2022-10-09T18:30:02.803Z,14.50
2022-10-09T18:35:02.727Z,10.10
2022-10-09T18:40:02.695Z,12.40
2022-10-09T18:45:02.826Z,24.70
2022-10-09T18:50:02.654Z,14.90
2022-10-09T18:55:02.615Z,10.20
2022-10-09T19:00:02.451Z,10.20
2022-10-09T19:05:02.474Z,12.00
2022-10-09T19:10:02.344Z,8.20
2022-10-09T19:15:02.451Z,14.70
2022-10-09T19:20:02.411Z,12.00
2022-10-09T19:25:03.289Z,15.50
2022-10-09T19:30:02.132Z,19.60
2022-10-09T19:35:02.092Z,12.40
2022-10-09T19:40:02.081Z,10.50
2022-10-09T19:45:02.108Z,11.60
2022-10-09T19:50:02.078Z,16.20
2022-10-09T19:55:02.061Z,11.30
2022-10-09T20:00:01.845Z,14.70
2022-10-09T20:05:01.744Z,16.20
2022-10-09T20:10:01.812Z,27.60
2022-10-09T20:15:01.624Z,31.00
2022-10-09T20:20:01.662Z,15.00
2022-10-09T20:25:01.620Z,13.00
2022-10-09T20:30:01.529Z,17.90
2022-10-09T20:35:01.567Z,16.60
2022-10-09T20:40:01.434Z,17.90
2022-10-09T20:45:01.372Z,9.10
2022-10-09T20:50:01.406Z,14.00
2022-10-09T20:55:01.251Z,15.20
2022-10-09T21:00:01.167Z,20.90
2022-10-09T21:05:01.287Z,14.40
2022-10-09T21:10:01.118Z,8.00
2022-10-09T21:15:01.055Z,8.30
2022-10-09T21:20:00.967Z,8.20
2022-10-09T21:25:00.909Z,11.30
2022-10-09T21:30:00.783Z,6.40
2022-10-09T21:35:00.832Z,8.10
2022-10-09T21:40:00.775Z,7.40
2022-10-09T21:45:00.660Z,9.20
2022-10-09T21:50:01.751Z,7.70
2022-10-09T21:55:00.646Z,7.90
2022-10-09T22:00:00.562Z,11.90
2022-10-09T22:05:00.420Z,12.20
2022-10-09T22:10:00.404Z,16.30
2022-10-09T22:15:00.515Z,13.30
2022-10-09T22:20:00.463Z,10.80
2022-10-09T22:25:00.301Z,21.70
2022-10-09T22:30:00.248Z,11.30
2022-10-09T22:35:00.173Z,10.30
2022-10-09T22:40:00.091Z,10.70
2022-10-09T22:45:01.038Z,9.40
2022-10-09T22:49:59.917Z,10.10
2022-10-09T22:55:00.011Z,8.20
2022-10-09T22:59:59.799Z,6.80
2022-10-09T23:04:59.781Z,8.80
2022-10-09T23:09:59.727Z,9.50
2022-10-09T23:15:00.729Z,6.00
2022-10-09T23:19:59.726Z,7.50
2022-10-09T23:24:59.635Z,9.20
2022-10-09T23:30:00.525Z,7.60
2022-10-09T23:34:59.450Z,6.60
2022-10-09T23:39:59.633Z,7.10
2022-10-09T23:45:00.436Z,7.60
2022-10-09T23:49:59.451Z,5.70
2022-10-09T23:54:59.235Z,4.90
2022-10-09T23:59:59.181Z,7.00
